Drogenbos, Belgium
Current Conditions -  °F | °C
As of 2:50 AM on Thursday 27 Nov 2014 (Local Time) from EBBR Reporting Station
Broken Clouds Broken Clouds  
Wind Chill: 46°   Ceiling: 1900
Heat Index: 48°   Visibility: 4mi
Dew Point: 45°   Wind: 6mph
Humidity: 87%   Direction: 160°SSE
Pressure: 29.77"   Gusts: NA
Location:  50.79°N, 4.31°E
Report Text: EBBR 270150Z 16005KT 7000 BKN019 BKN048 09/07 Q1008 NOSIG
Loading
Personal Weather Stations






























Interactive Weather Map New forecast layout! Learn more

10-Day Weather Forecast

Advertisements
Track Severe Weather on mobile